sensor_id;sensor_type;location;lat;lon;timestamp;P1;durP1;ratioP1;P2;durP2;ratioP2
17153;SDS011;8692;52.164;7.558;2023-04-30T00:00:01;3.23;;;2.93;;
17153;SDS011;8692;52.164;7.558;2023-04-30T00:02:35;5.00;;;4.50;;
17153;SDS011;8692;52.164;7.558;2023-04-30T00:05:05;4.07;;;3.67;;
17153;SDS011;8692;52.164;7.558;2023-04-30T00:07:34;3.93;;;3.50;;
17153;SDS011;8692;52.164;7.558;2023-04-30T00:10:05;3.83;;;3.47;;
17153;SDS011;8692;52.164;7.558;2023-04-30T00:12:34;4.03;;;3.57;;
17153;SDS011;8692;52.164;7.558;2023-04-30T00:15:03;4.23;;;3.83;;
17153;SDS011;8692;52.164;7.558;2023-04-30T00:17:33;5.90;;;4.13;;
17153;SDS011;8692;52.164;7.558;2023-04-30T00:20:06;4.73;;;3.77;;
17153;SDS011;8692;52.164;7.558;2023-04-30T00:22:34;3.87;;;3.57;;
17153;SDS011;8692;52.164;7.558;2023-04-30T00:25:03;4.10;;;3.70;;
17153;SDS011;8692;52.164;7.558;2023-04-30T00:27:31;4.20;;;3.40;;
17153;SDS011;8692;52.164;7.558;2023-04-30T00:30:00;4.93;;;3.77;;
17153;SDS011;8692;52.164;7.558;2023-04-30T00:32:28;3.97;;;3.50;;
17153;SDS011;8692;52.164;7.558;2023-04-30T00:34:56;4.43;;;4.03;;
17153;SDS011;8692;52.164;7.558;2023-04-30T00:37:27;4.53;;;4.07;;
17153;SDS011;8692;52.164;7.558;2023-04-30T00:39:56;3.93;;;3.60;;
17153;SDS011;8692;52.164;7.558;2023-04-30T00:42:26;4.63;;;3.77;;
17153;SDS011;8692;52.164;7.558;2023-04-30T00:44:54;4.50;;;4.10;;
17153;SDS011;8692;52.164;7.558;2023-04-30T00:47:23;4.27;;;3.40;;
17153;SDS011;8692;52.164;7.558;2023-04-30T00:49:53;4.30;;;3.90;;
17153;SDS011;8692;52.164;7.558;2023-04-30T00:52:25;4.83;;;4.33;;
17153;SDS011;8692;52.164;7.558;2023-04-30T00:54:55;3.63;;;3.33;;
17153;SDS011;8692;52.164;7.558;2023-04-30T00:57:23;3.57;;;3.27;;
17153;SDS011;8692;52.164;7.558;2023-04-30T00:59:53;4.90;;;3.30;;
17153;SDS011;8692;52.164;7.558;2023-04-30T01:02:25;5.43;;;3.73;;
17153;SDS011;8692;52.164;7.558;2023-04-30T01:04:55;4.20;;;3.80;;
17153;SDS011;8692;52.164;7.558;2023-04-30T01:07:27;4.17;;;3.50;;
17153;SDS011;8692;52.164;7.558;2023-04-30T01:09:55;3.57;;;3.27;;
17153;SDS011;8692;52.164;7.558;2023-04-30T01:12:25;3.27;;;2.93;;
17153;SDS011;8692;52.164;7.558;2023-04-30T01:15:08;6.50;;;4.07;;
17153;SDS011;8692;52.164;7.558;2023-04-30T01:17:43;8.03;;;5.13;;
17153;SDS011;8692;52.164;7.558;2023-04-30T01:20:16;8.80;;;7.40;;
17153;SDS011;8692;52.164;7.558;2023-04-30T01:22:49;11.07;;;8.20;;
17153;SDS011;8692;52.164;7.558;2023-04-30T01:25:26;13.97;;;9.63;;
17153;SDS011;8692;52.164;7.558;2023-04-30T01:28:06;12.77;;;9.50;;
17153;SDS011;8692;52.164;7.558;2023-04-30T01:30:38;14.23;;;9.67;;
17153;SDS011;8692;52.164;7.558;2023-04-30T01:33:12;11.20;;;9.53;;
17153;SDS011;8692;52.164;7.558;2023-04-30T01:35:50;13.77;;;9.50;;
17153;SDS011;8692;52.164;7.558;2023-04-30T01:38:40;10.73;;;8.50;;
17153;SDS011;8692;52.164;7.558;2023-04-30T01:41:24;10.87;;;8.37;;
17153;SDS011;8692;52.164;7.558;2023-04-30T01:44:08;10.20;;;7.57;;
17153;SDS011;8692;52.164;7.558;2023-04-30T01:46:48;6.70;;;6.00;;
17153;SDS011;8692;52.164;7.558;2023-04-30T01:49:25;8.53;;;6.17;;
17153;SDS011;8692;52.164;7.558;2023-04-30T01:52:02;5.93;;;5.13;;
17153;SDS011;8692;52.164;7.558;2023-04-30T01:54:41;7.37;;;5.17;;
17153;SDS011;8692;52.164;7.558;2023-04-30T01:57:20;6.20;;;4.90;;
17153;SDS011;8692;52.164;7.558;2023-04-30T01:59:57;5.70;;;4.97;;
17153;SDS011;8692;52.164;7.558;2023-04-30T02:02:29;6.97;;;4.40;;
17153;SDS011;8692;52.164;7.558;2023-04-30T02:04:57;5.07;;;4.00;;
17153;SDS011;8692;52.164;7.558;2023-04-30T02:07:28;4.83;;;4.27;;
17153;SDS011;8692;52.164;7.558;2023-04-30T02:10:04;5.23;;;4.07;;
17153;SDS011;8692;52.164;7.558;2023-04-30T02:12:35;4.20;;;3.77;;
17153;SDS011;8692;52.164;7.558;2023-04-30T02:15:08;5.37;;;4.63;;
17153;SDS011;8692;52.164;7.558;2023-04-30T02:17:39;3.53;;;3.23;;
17153;SDS011;8692;52.164;7.558;2023-04-30T02:20:07;5.63;;;4.00;;
17153;SDS011;8692;52.164;7.558;2023-04-30T02:22:36;5.63;;;5.03;;
17153;SDS011;8692;52.164;7.558;2023-04-30T02:25:04;6.80;;;4.57;;
17153;SDS011;8692;52.164;7.558;2023-04-30T02:27:33;5.03;;;4.37;;
17153;SDS011;8692;52.164;7.558;2023-04-30T02:30:01;5.50;;;3.93;;
17153;SDS011;8692;52.164;7.558;2023-04-30T02:32:33;4.40;;;3.73;;
17153;SDS011;8692;52.164;7.558;2023-04-30T02:35:04;7.73;;;4.17;;
17153;SDS011;8692;52.164;7.558;2023-04-30T02:37:32;6.00;;;4.67;;
17153;SDS011;8692;52.164;7.558;2023-04-30T02:40:01;10.40;;;6.57;;
17153;SDS011;8692;52.164;7.558;2023-04-30T02:42:29;10.03;;;7.20;;
17153;SDS011;8692;52.164;7.558;2023-04-30T02:44:57;15.00;;;8.40;;
17153;SDS011;8692;52.164;7.558;2023-04-30T02:47:28;11.93;;;7.67;;
17153;SDS011;8692;52.164;7.558;2023-04-30T02:49:58;13.20;;;8.00;;
17153;SDS011;8692;52.164;7.558;2023-04-30T02:52:26;8.80;;;6.17;;
17153;SDS011;8692;52.164;7.558;2023-04-30T02:54:56;7.47;;;5.70;;
17153;SDS011;8692;52.164;7.558;2023-04-30T02:57:24;7.33;;;4.97;;
17153;SDS011;8692;52.164;7.558;2023-04-30T02:59:52;5.13;;;4.63;;
17153;SDS011;8692;52.164;7.558;2023-04-30T03:02:21;5.53;;;4.00;;
17153;SDS011;8692;52.164;7.558;2023-04-30T03:04:49;5.40;;;4.17;;
17153;SDS011;8692;52.164;7.558;2023-04-30T03:07:19;6.73;;;4.23;;
17153;SDS011;8692;52.164;7.558;2023-04-30T03:09:47;5.10;;;4.13;;
17153;SDS011;8692;52.164;7.558;2023-04-30T03:12:15;3.83;;;3.40;;
17153;SDS011;8692;52.164;7.558;2023-04-30T03:14:43;3.57;;;3.27;;
17153;SDS011;8692;52.164;7.558;2023-04-30T03:17:12;3.63;;;3.33;;
17153;SDS011;8692;52.164;7.558;2023-04-30T03:19:40;3.80;;;3.47;;
17153;SDS011;8692;52.164;7.558;2023-04-30T03:22:09;4.20;;;3.40;;
17153;SDS011;8692;52.164;7.558;2023-04-30T03:24:38;3.90;;;3.50;;
17153;SDS011;8692;52.164;7.558;2023-04-30T03:27:07;4.17;;;3.63;;
17153;SDS011;8692;52.164;7.558;2023-04-30T03:29:35;5.23;;;4.10;;
17153;SDS011;8692;52.164;7.558;2023-04-30T03:32:03;4.30;;;3.90;;
17153;SDS011;8692;52.164;7.558;2023-04-30T03:34:31;3.93;;;3.53;;
17153;SDS011;8692;52.164;7.558;2023-04-30T03:37:02;4.57;;;3.83;;
17153;SDS011;8692;52.164;7.558;2023-04-30T03:39:30;4.63;;;4.23;;
17153;SDS011;8692;52.164;7.558;2023-04-30T03:41:59;4.50;;;3.77;;
17153;SDS011;8692;52.164;7.558;2023-04-30T03:44:31;4.30;;;3.90;;
17153;SDS011;8692;52.164;7.558;2023-04-30T03:46:59;4.93;;;3.60;;
17153;SDS011;8692;52.164;7.558;2023-04-30T03:49:27;6.10;;;4.10;;
17153;SDS011;8692;52.164;7.558;2023-04-30T03:51:55;5.17;;;3.80;;
17153;SDS011;8692;52.164;7.558;2023-04-30T03:54:24;5.50;;;4.47;;
17153;SDS011;8692;52.164;7.558;2023-04-30T03:56:52;4.00;;;3.60;;
17153;SDS011;8692;52.164;7.558;2023-04-30T03:59:24;3.80;;;3.40;;
17153;SDS011;8692;52.164;7.558;2023-04-30T04:01:52;4.40;;;3.80;;
17153;SDS011;8692;52.164;7.558;2023-04-30T04:04:21;3.83;;;3.50;;
17153;SDS011;8692;52.164;7.558;2023-04-30T04:06:52;4.60;;;3.90;;
17153;SDS011;8692;52.164;7.558;2023-04-30T04:09:20;5.63;;;4.17;;
17153;SDS011;8692;52.164;7.558;2023-04-30T04:11:48;5.53;;;4.40;;
17153;SDS011;8692;52.164;7.558;2023-04-30T04:14:16;6.87;;;4.37;;
17153;SDS011;8692;52.164;7.558;2023-04-30T04:16:46;5.40;;;4.13;;
17153;SDS011;8692;52.164;7.558;2023-04-30T04:19:14;7.10;;;4.37;;
17153;SDS011;8692;52.164;7.558;2023-04-30T04:21:45;4.67;;;4.17;;
17153;SDS011;8692;52.164;7.558;2023-04-30T04:24:16;5.60;;;4.13;;
17153;SDS011;8692;52.164;7.558;2023-04-30T04:26:44;4.27;;;3.77;;
17153;SDS011;8692;52.164;7.558;2023-04-30T04:29:13;4.67;;;3.77;;
17153;SDS011;8692;52.164;7.558;2023-04-30T04:31:43;4.07;;;3.67;;
17153;SDS011;8692;52.164;7.558;2023-04-30T04:34:16;3.53;;;3.23;;
17153;SDS011;8692;52.164;7.558;2023-04-30T04:36:45;4.07;;;3.60;;
17153;SDS011;8692;52.164;7.558;2023-04-30T04:39:13;4.43;;;3.53;;
17153;SDS011;8692;52.164;7.558;2023-04-30T04:41:41;4.60;;;3.50;;
17153;SDS011;8692;52.164;7.558;2023-04-30T04:44:09;3.33;;;3.03;;
17153;SDS011;8692;52.164;7.558;2023-04-30T04:46:38;5.00;;;3.50;;
17153;SDS011;8692;52.164;7.558;2023-04-30T04:49:12;3.60;;;3.07;;
17153;SDS011;8692;52.164;7.558;2023-04-30T04:51:44;3.37;;;3.00;;
17153;SDS011;8692;52.164;7.558;2023-04-30T04:54:13;3.80;;;3.50;;
17153;SDS011;8692;52.164;7.558;2023-04-30T04:56:43;3.57;;;2.80;;
17153;SDS011;8692;52.164;7.558;2023-04-30T04:59:11;3.60;;;3.17;;
17153;SDS011;8692;52.164;7.558;2023-04-30T05:01:40;3.97;;;3.40;;
17153;SDS011;8692;52.164;7.558;2023-04-30T05:04:09;5.57;;;3.33;;
17153;SDS011;8692;52.164;7.558;2023-04-30T05:06:39;4.33;;;3.53;;
17153;SDS011;8692;52.164;7.558;2023-04-30T05:09:09;3.30;;;3.00;;
17153;SDS011;8692;52.164;7.558;2023-04-30T05:11:37;5.17;;;3.50;;
17153;SDS011;8692;52.164;7.558;2023-04-30T05:14:07;4.30;;;3.83;;
17153;SDS011;8692;52.164;7.558;2023-04-30T05:16:37;5.27;;;4.10;;
17153;SDS011;8692;52.164;7.558;2023-04-30T05:19:05;5.17;;;3.63;;
17153;SDS011;8692;52.164;7.558;2023-04-30T05:21:35;5.03;;;3.83;;
17153;SDS011;8692;52.164;7.558;2023-04-30T05:24:03;5.87;;;3.87;;
17153;SDS011;8692;52.164;7.558;2023-04-30T05:26:33;6.17;;;4.23;;
17153;SDS011;8692;52.164;7.558;2023-04-30T05:29:01;6.97;;;4.73;;
17153;SDS011;8692;52.164;7.558;2023-04-30T05:31:29;5.97;;;4.80;;
17153;SDS011;8692;52.164;7.558;2023-04-30T05:34:00;6.07;;;4.47;;
17153;SDS011;8692;52.164;7.558;2023-04-30T05:36:28;9.63;;;4.90;;
17153;SDS011;8692;52.164;7.558;2023-04-30T05:38:57;5.37;;;4.53;;
17153;SDS011;8692;52.164;7.558;2023-04-30T05:41:25;6.43;;;5.10;;
17153;SDS011;8692;52.164;7.558;2023-04-30T05:43:55;12.03;;;5.13;;
17153;SDS011;8692;52.164;7.558;2023-04-30T05:46:23;5.70;;;4.43;;
17153;SDS011;8692;52.164;7.558;2023-04-30T05:48:51;8.50;;;4.83;;
17153;SDS011;8692;52.164;7.558;2023-04-30T05:51:19;7.50;;;5.17;;
17153;SDS011;8692;52.164;7.558;2023-04-30T05:53:48;7.17;;;4.93;;
17153;SDS011;8692;52.164;7.558;2023-04-30T05:56:19;9.33;;;5.10;;
17153;SDS011;8692;52.164;7.558;2023-04-30T05:58:49;7.40;;;4.87;;
17153;SDS011;8692;52.164;7.558;2023-04-30T06:01:19;7.00;;;4.67;;
17153;SDS011;8692;52.164;7.558;2023-04-30T06:03:50;7.70;;;4.53;;
17153;SDS011;8692;52.164;7.558;2023-04-30T06:06:18;7.70;;;5.03;;
17153;SDS011;8692;52.164;7.558;2023-04-30T06:08:47;7.53;;;4.93;;
17153;SDS011;8692;52.164;7.558;2023-04-30T06:11:17;9.70;;;5.43;;
17153;SDS011;8692;52.164;7.558;2023-04-30T06:13:46;8.00;;;4.83;;
17153;SDS011;8692;52.164;7.558;2023-04-30T06:16:17;6.73;;;5.10;;
17153;SDS011;8692;52.164;7.558;2023-04-30T06:18:49;9.83;;;4.03;;
17153;SDS011;8692;52.164;7.558;2023-04-30T06:21:19;10.57;;;5.00;;
17153;SDS011;8692;52.164;7.558;2023-04-30T06:23:51;10.50;;;3.73;;
17153;SDS011;8692;52.164;7.558;2023-04-30T06:26:19;9.87;;;4.30;;
17153;SDS011;8692;52.164;7.558;2023-04-30T06:28:49;7.50;;;4.03;;
17153;SDS011;8692;52.164;7.558;2023-04-30T06:31:17;9.30;;;3.73;;
17153;SDS011;8692;52.164;7.558;2023-04-30T06:33:46;5.70;;;2.90;;
17153;SDS011;8692;52.164;7.558;2023-04-30T06:36:17;10.27;;;3.57;;
17153;SDS011;8692;52.164;7.558;2023-04-30T06:38:48;8.40;;;4.20;;
17153;SDS011;8692;52.164;7.558;2023-04-30T06:41:16;9.70;;;3.63;;
17153;SDS011;8692;52.164;7.558;2023-04-30T06:43:45;6.13;;;3.30;;
17153;SDS011;8692;52.164;7.558;2023-04-30T06:46:15;7.07;;;4.00;;
17153;SDS011;8692;52.164;7.558;2023-04-30T06:48:43;9.43;;;4.10;;
17153;SDS011;8692;52.164;7.558;2023-04-30T06:51:14;7.03;;;3.73;;
17153;SDS011;8692;52.164;7.558;2023-04-30T06:53:45;8.37;;;3.33;;
17153;SDS011;8692;52.164;7.558;2023-04-30T06:56:16;8.80;;;3.60;;
17153;SDS011;8692;52.164;7.558;2023-04-30T06:58:44;6.63;;;3.40;;
17153;SDS011;8692;52.164;7.558;2023-04-30T07:01:12;6.77;;;3.60;;
17153;SDS011;8692;52.164;7.558;2023-04-30T07:03:40;6.33;;;3.50;;
17153;SDS011;8692;52.164;7.558;2023-04-30T07:06:09;7.83;;;3.13;;
17153;SDS011;8692;52.164;7.558;2023-04-30T07:08:37;10.20;;;3.53;;
17153;SDS011;8692;52.164;7.558;2023-04-30T07:11:08;9.40;;;4.20;;
17153;SDS011;8692;52.164;7.558;2023-04-30T07:13:36;5.90;;;2.97;;
17153;SDS011;8692;52.164;7.558;2023-04-30T07:16:07;7.90;;;2.80;;
17153;SDS011;8692;52.164;7.558;2023-04-30T07:18:38;7.07;;;2.77;;
17153;SDS011;8692;52.164;7.558;2023-04-30T07:21:09;5.17;;;2.50;;
17153;SDS011;8692;52.164;7.558;2023-04-30T07:23:38;10.03;;;3.00;;
17153;SDS011;8692;52.164;7.558;2023-04-30T07:26:07;9.00;;;3.40;;
17153;SDS011;8692;52.164;7.558;2023-04-30T07:28:35;7.53;;;3.07;;
17153;SDS011;8692;52.164;7.558;2023-04-30T07:31:03;6.77;;;3.10;;
17153;SDS011;8692;52.164;7.558;2023-04-30T07:33:33;8.40;;;3.20;;
17153;SDS011;8692;52.164;7.558;2023-04-30T07:36:03;5.77;;;2.93;;
17153;SDS011;8692;52.164;7.558;2023-04-30T07:38:32;9.67;;;3.13;;
17153;SDS011;8692;52.164;7.558;2023-04-30T07:41:00;9.37;;;3.40;;
17153;SDS011;8692;52.164;7.558;2023-04-30T07:43:32;8.63;;;2.73;;
17153;SDS011;8692;52.164;7.558;2023-04-30T07:46:00;4.67;;;2.70;;
17153;SDS011;8692;52.164;7.558;2023-04-30T07:48:29;10.20;;;2.90;;
17153;SDS011;8692;52.164;7.558;2023-04-30T07:51:00;6.07;;;2.97;;
17153;SDS011;8692;52.164;7.558;2023-04-30T07:53:32;6.30;;;2.70;;
17153;SDS011;8692;52.164;7.558;2023-04-30T07:56:00;10.10;;;3.07;;
17153;SDS011;8692;52.164;7.558;2023-04-30T07:58:29;9.13;;;2.87;;
17153;SDS011;8692;52.164;7.558;2023-04-30T08:00:58;8.73;;;2.83;;
17153;SDS011;8692;52.164;7.558;2023-04-30T08:03:27;9.30;;;2.30;;
17153;SDS011;8692;52.164;7.558;2023-04-30T08:05:55;8.83;;;3.13;;
17153;SDS011;8692;52.164;7.558;2023-04-30T08:08:23;7.80;;;2.80;;
17153;SDS011;8692;52.164;7.558;2023-04-30T08:10:53;5.83;;;3.03;;
17153;SDS011;8692;52.164;7.558;2023-04-30T08:13:22;8.37;;;2.83;;
17153;SDS011;8692;52.164;7.558;2023-04-30T08:15:50;6.67;;;2.40;;
17153;SDS011;8692;52.164;7.558;2023-04-30T08:18:19;8.30;;;3.07;;
17153;SDS011;8692;52.164;7.558;2023-04-30T08:20:48;6.73;;;2.73;;
17153;SDS011;8692;52.164;7.558;2023-04-30T08:23:16;5.60;;;2.80;;
17153;SDS011;8692;52.164;7.558;2023-04-30T08:25:44;6.70;;;2.47;;
17153;SDS011;8692;52.164;7.558;2023-04-30T08:28:14;6.53;;;2.77;;
17153;SDS011;8692;52.164;7.558;2023-04-30T08:30:43;6.03;;;2.50;;
17153;SDS011;8692;52.164;7.558;2023-04-30T08:33:11;5.93;;;2.60;;
17153;SDS011;8692;52.164;7.558;2023-04-30T08:35:41;6.13;;;2.30;;
17153;SDS011;8692;52.164;7.558;2023-04-30T08:38:11;7.67;;;2.73;;
17153;SDS011;8692;52.164;7.558;2023-04-30T08:40:39;8.73;;;2.70;;
17153;SDS011;8692;52.164;7.558;2023-04-30T08:43:11;9.80;;;2.70;;
17153;SDS011;8692;52.164;7.558;2023-04-30T08:45:41;9.10;;;2.60;;
17153;SDS011;8692;52.164;7.558;2023-04-30T08:48:13;4.70;;;2.97;;
17153;SDS011;8692;52.164;7.558;2023-04-30T08:50:43;8.33;;;2.97;;
17153;SDS011;8692;52.164;7.558;2023-04-30T08:53:12;6.93;;;2.63;;
17153;SDS011;8692;52.164;7.558;2023-04-30T08:55:45;7.40;;;3.17;;
17153;SDS011;8692;52.164;7.558;2023-04-30T08:58:14;8.80;;;2.87;;
17153;SDS011;8692;52.164;7.558;2023-04-30T09:00:42;6.63;;;2.57;;
17153;SDS011;8692;52.164;7.558;2023-04-30T09:03:10;3.73;;;2.70;;
17153;SDS011;8692;52.164;7.558;2023-04-30T09:05:39;8.20;;;2.90;;
17153;SDS011;8692;52.164;7.558;2023-04-30T09:08:08;7.47;;;3.40;;
17153;SDS011;8692;52.164;7.558;2023-04-30T09:10:45;6.10;;;3.10;;
17153;SDS011;8692;52.164;7.558;2023-04-30T09:13:13;8.90;;;3.50;;
17153;SDS011;8692;52.164;7.558;2023-04-30T09:15:42;6.20;;;2.70;;
17153;SDS011;8692;52.164;7.558;2023-04-30T09:18:14;7.47;;;2.73;;
17153;SDS011;8692;52.164;7.558;2023-04-30T09:20:54;8.17;;;3.07;;
17153;SDS011;8692;52.164;7.558;2023-04-30T09:23:27;4.53;;;2.80;;
17153;SDS011;8692;52.164;7.558;2023-04-30T09:25:55;5.83;;;3.23;;
17153;SDS011;8692;52.164;7.558;2023-04-30T09:28:24;3.60;;;2.70;;
17153;SDS011;8692;52.164;7.558;2023-04-30T09:30:55;4.87;;;2.57;;
17153;SDS011;8692;52.164;7.558;2023-04-30T09:33:24;6.70;;;2.63;;
17153;SDS011;8692;52.164;7.558;2023-04-30T09:35:52;5.67;;;2.90;;
17153;SDS011;8692;52.164;7.558;2023-04-30T09:38:24;7.07;;;2.70;;
17153;SDS011;8692;52.164;7.558;2023-04-30T09:40:56;4.90;;;2.30;;
17153;SDS011;8692;52.164;7.558;2023-04-30T09:43:25;7.20;;;2.90;;
17153;SDS011;8692;52.164;7.558;2023-04-30T09:45:53;5.93;;;2.37;;
17153;SDS011;8692;52.164;7.558;2023-04-30T09:48:24;4.40;;;2.13;;
17153;SDS011;8692;52.164;7.558;2023-04-30T09:50:53;4.97;;;2.43;;
17153;SDS011;8692;52.164;7.558;2023-04-30T09:53:25;9.17;;;2.50;;
17153;SDS011;8692;52.164;7.558;2023-04-30T09:55:57;4.33;;;2.17;;
17153;SDS011;8692;52.164;7.558;2023-04-30T09:58:28;7.27;;;2.73;;
17153;SDS011;8692;52.164;7.558;2023-04-30T10:00:59;3.50;;;1.90;;
17153;SDS011;8692;52.164;7.558;2023-04-30T10:03:30;3.70;;;1.83;;
17153;SDS011;8692;52.164;7.558;2023-04-30T10:05:59;5.17;;;2.37;;
17153;SDS011;8692;52.164;7.558;2023-04-30T10:08:30;7.03;;;2.30;;
17153;SDS011;8692;52.164;7.558;2023-04-30T10:11:03;4.40;;;2.40;;
17153;SDS011;8692;52.164;7.558;2023-04-30T10:13:37;4.27;;;2.10;;
17153;SDS011;8692;52.164;7.558;2023-04-30T10:16:11;5.93;;;1.93;;
17153;SDS011;8692;52.164;7.558;2023-04-30T10:18:50;3.83;;;2.20;;
17153;SDS011;8692;52.164;7.558;2023-04-30T10:21:21;5.10;;;2.10;;
17153;SDS011;8692;52.164;7.558;2023-04-30T10:23:54;4.83;;;2.57;;
17153;SDS011;8692;52.164;7.558;2023-04-30T10:26:23;5.07;;;2.40;;
17153;SDS011;8692;52.164;7.558;2023-04-30T10:28:51;5.77;;;2.33;;
17153;SDS011;8692;52.164;7.558;2023-04-30T10:31:23;7.03;;;2.53;;
17153;SDS011;8692;52.164;7.558;2023-04-30T10:33:57;4.33;;;2.03;;
17153;SDS011;8692;52.164;7.558;2023-04-30T10:36:32;5.07;;;2.03;;
17153;SDS011;8692;52.164;7.558;2023-04-30T10:39:09;5.07;;;2.17;;
17153;SDS011;8692;52.164;7.558;2023-04-30T10:41:41;5.27;;;2.10;;
17153;SDS011;8692;52.164;7.558;2023-04-30T10:44:14;7.43;;;2.03;;
17153;SDS011;8692;52.164;7.558;2023-04-30T10:46:48;4.63;;;1.70;;
17153;SDS011;8692;52.164;7.558;2023-04-30T10:49:25;2.83;;;1.77;;
17153;SDS011;8692;52.164;7.558;2023-04-30T10:51:54;6.40;;;1.53;;
17153;SDS011;8692;52.164;7.558;2023-04-30T10:54:28;3.77;;;1.50;;
17153;SDS011;8692;52.164;7.558;2023-04-30T10:57:07;3.60;;;1.50;;
17153;SDS011;8692;52.164;7.558;2023-04-30T10:59:43;38.23;;;4.47;;
17153;SDS011;8692;52.164;7.558;2023-04-30T11:02:19;4.23;;;1.90;;
17153;SDS011;8692;52.164;7.558;2023-04-30T11:07:46;7.03;;;1.83;;
17153;SDS011;8692;52.164;7.558;2023-04-30T11:10:18;3.67;;;1.60;;
17153;SDS011;8692;52.164;7.558;2023-04-30T11:12:48;3.57;;;1.77;;
17153;SDS011;8692;52.164;7.558;2023-04-30T11:15:18;4.63;;;2.00;;
17153;SDS011;8692;52.164;7.558;2023-04-30T11:17:48;6.60;;;2.33;;
17153;SDS011;8692;52.164;7.558;2023-04-30T11:20:20;4.17;;;1.90;;
17153;SDS011;8692;52.164;7.558;2023-04-30T11:25:39;5.47;;;1.90;;
17153;SDS011;8692;52.164;7.558;2023-04-30T11:28:12;5.90;;;2.20;;
17153;SDS011;8692;52.164;7.558;2023-04-30T11:30:49;5.50;;;2.10;;
17153;SDS011;8692;52.164;7.558;2023-04-30T11:33:21;4.63;;;2.07;;
17153;SDS011;8692;52.164;7.558;2023-04-30T11:35:52;5.80;;;2.30;;
17153;SDS011;8692;52.164;7.558;2023-04-30T11:38:25;5.17;;;2.23;;
17153;SDS011;8692;52.164;7.558;2023-04-30T11:40:56;4.90;;;2.50;;
17153;SDS011;8692;52.164;7.558;2023-04-30T11:43:26;5.93;;;2.23;;
17153;SDS011;8692;52.164;7.558;2023-04-30T11:46:08;5.07;;;1.97;;
17153;SDS011;8692;52.164;7.558;2023-04-30T11:48:38;2.80;;;1.65;;
17153;SDS011;8692;52.164;7.558;2023-04-30T11:51:14;4.00;;;1.47;;
17153;SDS011;8692;52.164;7.558;2023-04-30T11:53:44;3.87;;;1.77;;
17153;SDS011;8692;52.164;7.558;2023-04-30T11:56:17;4.83;;;1.97;;
17153;SDS011;8692;52.164;7.558;2023-04-30T11:58:47;5.77;;;1.67;;
17153;SDS011;8692;52.164;7.558;2023-04-30T12:01:17;4.33;;;1.70;;
17153;SDS011;8692;52.164;7.558;2023-04-30T12:03:47;4.10;;;1.60;;
17153;SDS011;8692;52.164;7.558;2023-04-30T12:06:22;3.80;;;1.10;;
17153;SDS011;8692;52.164;7.558;2023-04-30T12:08:51;4.17;;;1.47;;
17153;SDS011;8692;52.164;7.558;2023-04-30T12:11:22;2.83;;;1.60;;
17153;SDS011;8692;52.164;7.558;2023-04-30T12:13:52;3.17;;;1.27;;
17153;SDS011;8692;52.164;7.558;2023-04-30T12:16:22;2.90;;;1.50;;
17153;SDS011;8692;52.164;7.558;2023-04-30T12:18:51;5.80;;;1.50;;
17153;SDS011;8692;52.164;7.558;2023-04-30T12:21:19;4.93;;;1.80;;
17153;SDS011;8692;52.164;7.558;2023-04-30T12:23:49;4.10;;;1.77;;
17153;SDS011;8692;52.164;7.558;2023-04-30T12:26:18;4.20;;;1.50;;
17153;SDS011;8692;52.164;7.558;2023-04-30T12:28:48;6.37;;;1.77;;
17153;SDS011;8692;52.164;7.558;2023-04-30T12:31:18;3.20;;;1.40;;
17153;SDS011;8692;52.164;7.558;2023-04-30T12:33:53;3.57;;;1.77;;
17153;SDS011;8692;52.164;7.558;2023-04-30T12:36:27;3.90;;;2.03;;
17153;SDS011;8692;52.164;7.558;2023-04-30T12:39:01;2.67;;;1.70;;
17153;SDS011;8692;52.164;7.558;2023-04-30T12:41:34;4.77;;;1.87;;
17153;SDS011;8692;52.164;7.558;2023-04-30T12:44:15;4.50;;;1.97;;
17153;SDS011;8692;52.164;7.558;2023-04-30T12:46:44;2.83;;;1.40;;
17153;SDS011;8692;52.164;7.558;2023-04-30T12:49:22;1.83;;;1.13;;
17153;SDS011;8692;52.164;7.558;2023-04-30T12:51:57;5.17;;;1.40;;
17153;SDS011;8692;52.164;7.558;2023-04-30T12:54:27;3.83;;;1.40;;
17153;SDS011;8692;52.164;7.558;2023-04-30T12:56:57;2.50;;;1.30;;
17153;SDS011;8692;52.164;7.558;2023-04-30T12:59:28;3.17;;;1.50;;
17153;SDS011;8692;52.164;7.558;2023-04-30T13:02:04;2.73;;;1.20;;
17153;SDS011;8692;52.164;7.558;2023-04-30T13:04:36;1.37;;;1.00;;
17153;SDS011;8692;52.164;7.558;2023-04-30T13:07:05;3.30;;;1.30;;
17153;SDS011;8692;52.164;7.558;2023-04-30T13:09:34;1.43;;;0.90;;
17153;SDS011;8692;52.164;7.558;2023-04-30T13:12:03;3.87;;;1.30;;
17153;SDS011;8692;52.164;7.558;2023-04-30T13:14:33;3.30;;;1.40;;
17153;SDS011;8692;52.164;7.558;2023-04-30T13:17:01;4.47;;;1.60;;
17153;SDS011;8692;52.164;7.558;2023-04-30T13:19:32;5.17;;;1.53;;
17153;SDS011;8692;52.164;7.558;2023-04-30T13:22:02;3.23;;;1.50;;
17153;SDS011;8692;52.164;7.558;2023-04-30T13:24:33;1.90;;;1.20;;
17153;SDS011;8692;52.164;7.558;2023-04-30T13:27:04;2.33;;;1.50;;
17153;SDS011;8692;52.164;7.558;2023-04-30T13:29:33;3.47;;;1.40;;
17153;SDS011;8692;52.164;7.558;2023-04-30T13:32:01;3.23;;;1.43;;
17153;SDS011;8692;52.164;7.558;2023-04-30T13:34:31;3.23;;;1.50;;
17153;SDS011;8692;52.164;7.558;2023-04-30T13:37:02;3.60;;;1.20;;
17153;SDS011;8692;52.164;7.558;2023-04-30T13:39:30;1.53;;;1.13;;
17153;SDS011;8692;52.164;7.558;2023-04-30T13:41:58;2.97;;;1.10;;
17153;SDS011;8692;52.164;7.558;2023-04-30T13:44:29;2.07;;;1.47;;
17153;SDS011;8692;52.164;7.558;2023-04-30T13:46:59;2.07;;;1.20;;
17153;SDS011;8692;52.164;7.558;2023-04-30T13:49:30;3.60;;;1.73;;
17153;SDS011;8692;52.164;7.558;2023-04-30T13:52:02;2.77;;;1.47;;
17153;SDS011;8692;52.164;7.558;2023-04-30T13:54:30;3.63;;;1.20;;
17153;SDS011;8692;52.164;7.558;2023-04-30T13:56:59;4.50;;;1.40;;
17153;SDS011;8692;52.164;7.558;2023-04-30T13:59:27;2.27;;;1.23;;
17153;SDS011;8692;52.164;7.558;2023-04-30T14:01:55;3.43;;;1.53;;
17153;SDS011;8692;52.164;7.558;2023-04-30T14:04:25;4.03;;;1.70;;
17153;SDS011;8692;52.164;7.558;2023-04-30T14:06:53;5.17;;;1.70;;
17153;SDS011;8692;52.164;7.558;2023-04-30T14:09:22;5.13;;;1.73;;
17153;SDS011;8692;52.164;7.558;2023-04-30T14:11:51;2.87;;;1.27;;
17153;SDS011;8692;52.164;7.558;2023-04-30T14:14:21;3.13;;;1.30;;
17153;SDS011;8692;52.164;7.558;2023-04-30T14:16:49;3.97;;;1.60;;
17153;SDS011;8692;52.164;7.558;2023-04-30T14:19:18;3.23;;;1.50;;
17153;SDS011;8692;52.164;7.558;2023-04-30T14:21:47;2.60;;;1.20;;
17153;SDS011;8692;52.164;7.558;2023-04-30T14:24:16;2.73;;;1.40;;
17153;SDS011;8692;52.164;7.558;2023-04-30T14:26:45;3.53;;;1.60;;
17153;SDS011;8692;52.164;7.558;2023-04-30T14:29:16;3.80;;;1.40;;
17153;SDS011;8692;52.164;7.558;2023-04-30T14:31:47;2.50;;;1.13;;
17153;SDS011;8692;52.164;7.558;2023-04-30T14:34:18;3.47;;;1.10;;
17153;SDS011;8692;52.164;7.558;2023-04-30T14:36:47;3.43;;;1.20;;
17153;SDS011;8692;52.164;7.558;2023-04-30T14:39:16;5.03;;;1.87;;
17153;SDS011;8692;52.164;7.558;2023-04-30T14:41:44;3.53;;;1.50;;
17153;SDS011;8692;52.164;7.558;2023-04-30T14:44:15;2.93;;;1.73;;
17153;SDS011;8692;52.164;7.558;2023-04-30T14:46:43;3.10;;;1.70;;
17153;SDS011;8692;52.164;7.558;2023-04-30T14:49:11;5.78;;;1.77;;
17153;SDS011;8692;52.164;7.558;2023-04-30T14:51:39;4.10;;;1.50;;
17153;SDS011;8692;52.164;7.558;2023-04-30T14:54:09;2.63;;;1.37;;
17153;SDS011;8692;52.164;7.558;2023-04-30T14:56:37;3.67;;;1.40;;
17153;SDS011;8692;52.164;7.558;2023-04-30T14:59:06;2.03;;;1.27;;
17153;SDS011;8692;52.164;7.558;2023-04-30T15:01:37;3.17;;;1.43;;
17153;SDS011;8692;52.164;7.558;2023-04-30T15:04:05;4.53;;;1.47;;
17153;SDS011;8692;52.164;7.558;2023-04-30T15:06:33;2.40;;;1.60;;
17153;SDS011;8692;52.164;7.558;2023-04-30T15:09:02;2.90;;;1.47;;
17153;SDS011;8692;52.164;7.558;2023-04-30T15:11:31;2.53;;;1.20;;
17153;SDS011;8692;52.164;7.558;2023-04-30T15:14:00;5.17;;;1.40;;
17153;SDS011;8692;52.164;7.558;2023-04-30T15:16:28;2.80;;;1.40;;
17153;SDS011;8692;52.164;7.558;2023-04-30T15:18:56;3.50;;;1.43;;
17153;SDS011;8692;52.164;7.558;2023-04-30T15:21:25;2.63;;;1.33;;
17153;SDS011;8692;52.164;7.558;2023-04-30T15:23:56;2.27;;;1.33;;